Time;durP1;ratioP1;P1;durP2;ratioP2;P2;SDS_P1;SDS_P2;PMS_P1;PMS_P2;Temp;Humidity;BMP_temperature;BMP_pressure;BME280_temperature;BME280_humidity;BME280_pressure;Samples;Min_cycle;Max_cycle;Signal;HPM_P1;HPM_P2
2022/12/27 07:00:56;;;;;;;;;;;;;;;11.05;100.00;100741.91;5427940;22;20012;-83
2022/12/27 07:03:21;;;;;;;;;;;;;;;11.05;100.00;100747.22;5005711;28;19921;-83
2022/12/27 07:05:46;;;;;;;;;;;;;;;11.06;100.00;100746.31;5012736;28;19917;-83
2022/12/27 07:08:11;;;;;;;;;;;;;;;10.86;100.00;100753.97;5004599;28;19917;-84
2022/12/27 07:10:37;;;;;;;;;;;;;;;10.34;100.00;100759.81;4999320;28;19928;-83
2022/12/27 07:13:02;;;;;;;;;;;;;;;10.15;100.00;100761.16;5001091;28;19968;-83
2022/12/27 07:15:28;;;;;;;;;;;;;;;9.89;100.00;100765.34;5002169;28;20044;-84
2022/12/27 07:17:53;;;;;;;;;;;;;;;9.99;100.00;100768.63;4981497;28;20305;-84
2022/12/27 07:20:18;;;;;;;;;;;;;;;10.18;100.00;100769.03;5006441;28;19918;-83
2022/12/27 07:22:43;;;;;;;;;;;;;;;10.08;100.00;100780.75;4993777;28;20008;-84
2022/12/27 07:25:09;;;;;;;;;;;;;;;10.00;100.00;100787.13;4995204;28;19973;-82
2022/12/27 07:27:35;;;;;;;;;;;;;;;9.82;100.00;100782.25;4995424;28;19975;-86
2022/12/27 07:30:00;;;;;;;;;;;;;;;9.83;100.00;100786.66;4994551;28;19924;-85
2022/12/27 07:32:25;;;;;;;;;;;;;;;9.97;100.00;100786.31;4995779;28;19917;-85
2022/12/27 07:34:51;;;;;;;;;;;;;;;10.04;100.00;100790.56;4995640;28;20004;-86
2022/12/27 07:37:16;;;;;;;;;;;;;;;10.16;100.00;100792.03;4995689;28;19941;-86
2022/12/27 07:39:42;;;;;;;;;;;;;;;10.02;100.00;100797.69;4992947;28;19961;-83
2022/12/27 07:42:07;;;;;;;;;;;;;;;9.79;100.00;100799.06;5008530;28;19918;-84
2022/12/27 07:44:33;;;;;;;;;;;;;;;9.74;100.00;100803.63;5010728;28;19929;-83
2022/12/27 07:46:58;;;;;;;;;;;;;;;10.11;100.00;100812.47;4998730;28;20440;-82
2022/12/27 07:49:23;;;;;;;;;;;;;;;8.69;100.00;100815.50;5004130;28;19922;-82
2022/12/27 07:51:48;;;;;;;;;;;;;;;7.99;100.00;100813.16;5002143;28;19922;-81
2022/12/27 07:54:14;;;;;;;;;;;;;;;7.57;100.00;100808.50;4997493;28;20273;-83
2022/12/27 07:56:39;;;;;;;;;;;;;;;7.31;100.00;100814.16;4998277;28;20281;-81
2022/12/27 07:59:04;;;;;;;;;;;;;;;7.06;100.00;100808.31;5024890;28;19928;-80
2022/12/27 08:02:02;;;;;;;;;;;;;;;6.84;100.00;100808.53;5022616;28;20395;-78
2022/12/27 08:04:19;;;;;;;;;;;;;;;6.71;100.00;100809.56;5034149;28;19917;-79
2022/12/27 08:06:44;;;;;;;;;;;;;;;6.59;100.00;100818.50;5012998;28;19948;-79
2022/12/27 08:09:12;;;;;;;;;;;;;;;6.46;100.00;100815.09;4994831;28;20048;-80
2022/12/27 08:11:37;;;;;;;;;;;;;;;6.46;100.00;100830.00;4997375;28;19957;-79
2022/12/27 08:14:02;;;;;;;;;;;;;;;6.28;100.00;100829.28;5002439;28;19956;-79
2022/12/27 08:16:28;;;;;;;;;;;;;;;6.23;100.00;100835.50;5003310;28;19924;-79
2022/12/27 08:18:53;;;;;;;;;;;;;;;6.08;100.00;100840.00;5004967;28;19928;-79
2022/12/27 08:21:18;;;;;;;;;;;;;;;5.93;100.00;100850.59;5003662;28;19922;-80
2022/12/27 08:23:44;;;;;;;;;;;;;;;5.99;100.00;100846.19;5009285;28;19921;-79
2022/12/27 08:26:09;;;;;;;;;;;;;;;5.88;100.00;100839.22;4994802;28;20280;-79
2022/12/27 08:28:34;;;;;;;;;;;;;;;5.77;100.00;100836.66;5007281;28;19935;-80
2022/12/27 08:31:00;;;;;;;;;;;;;;;5.71;100.00;100847.22;5003809;28;19950;-80
2022/12/27 08:33:26;;;;;;;;;;;;;;;5.64;100.00;100851.63;4996535;28;20020;-80
2022/12/27 08:35:51;;;;;;;;;;;;;;;5.63;100.00;100855.13;5013140;28;19924;-79
2022/12/27 08:38:17;;;;;;;;;;;;;;;5.56;100.00;100856.94;4994378;28;19949;-79
2022/12/27 08:40:43;;;;;;;;;;;;;;;5.48;100.00;100858.72;4994183;28;19918;-80
2022/12/27 08:43:09;;;;;;;;;;;;;;;5.43;100.00;100855.25;4994330;28;19922;-79
2022/12/27 08:45:35;;;;;;;;;;;;;;;5.31;100.00;100856.16;4993081;28;19921;-80
2022/12/27 08:48:00;;;;;;;;;;;;;;;5.72;100.00;100854.22;4994226;28;19924;-80
2022/12/27 08:50:26;;;;;;;;;;;;;;;6.04;100.00;100858.44;4994249;28;19918;-80
2022/12/27 08:52:55;;;;;;;;;;;;;;;6.31;100.00;100858.22;4994059;28;19925;-79
2022/12/27 08:55:20;;;;;;;;;;;;;;;6.26;100.00;100861.78;4994253;28;19918;-80
2022/12/27 08:57:45;;;;;;;;;;;;;;;6.28;100.00;100863.50;4994145;28;19964;-81
2022/12/27 09:00:11;;;;;;;;;;;;;;;6.32;100.00;100859.97;4991541;28;20019;-80
2022/12/27 09:02:36;;;;;;;;;;;;;;;6.33;100.00;100864.38;4993781;28;19928;-80
2022/12/27 09:05:02;;;;;;;;;;;;;;;6.39;100.00;100867.81;4993950;28;20359;-80
2022/12/27 09:07:27;;;;;;;;;;;;;;;6.83;100.00;100869.16;4993967;28;20357;-80
2022/12/27 09:09:52;;;;;;;;;;;;;;;6.76;100.00;100867.47;5002026;28;19922;-79
2022/12/27 09:12:17;;;;;;;;;;;;;;;7.09;100.00;100872.38;5004715;28;19922;-81
2022/12/27 09:14:43;;;;;;;;;;;;;;;7.04;100.00;100862.81;5011949;28;19984;-81
2022/12/27 09:17:08;;;;;;;;;;;;;;;6.87;100.00;100855.06;5013400;28;19957;-80
2022/12/27 09:19:33;;;;;;;;;;;;;;;6.79;100.00;100854.28;5013343;28;19924;-82
2022/12/27 09:21:59;;;;;;;;;;;;;;;6.73;100.00;100858.72;5014260;28;19918;-79
2022/12/27 09:24:24;;;;;;;;;;;;;;;6.72;100.00;100862.25;5013518;28;19965;-80
2022/12/27 09:26:49;;;;;;;;;;;;;;;6.68;100.00;100863.16;5013279;28;19924;-79
2022/12/27 09:29:15;;;;;;;;;;;;;;;6.67;100.00;100874.59;4990471;28;19925;-80
2022/12/27 09:31:40;;;;;;;;;;;;;;;6.66;100.00;100870.19;5011865;28;20359;-80
2022/12/27 09:34:05;;;;;;;;;;;;;;;6.66;100.00;100880.72;5013296;28;20265;-79
2022/12/27 09:36:30;;;;;;;;;;;;;;;6.67;100.00;100879.84;4995764;28;19952;-83
2022/12/27 09:38:57;;;;;;;;;;;;;;;6.63;100.00;100875.50;4992508;28;19922;-82
2022/12/27 09:41:41;;;;;;;;;;;;;;;6.62;100.00;100879.03;4998340;28;19940;-80
2022/12/27 09:44:15;;;;;;;;;;;;;;;6.60;100.00;100878.16;5017115;28;19928;-83
2022/12/27 09:47:16;;;;;;;;;;;;;;;6.57;100.00;100872.91;5017090;28;19917;-81
2022/12/27 09:49:46;;;;;;;;;;;;;;;6.57;100.00;100872.91;4977908;28;19921;-83
2022/12/27 09:52:47;;;;;;;;;;;;;;;6.55;100.00;100885.22;4998757;28;19926;-87
2022/12/27 09:55:16;;;;;;;;;;;;;;;6.53;100.00;100877.34;4954759;28;20320;-85
2022/12/27 09:57:42;;;;;;;;;;;;;;;6.54;100.00;100880.84;5005506;28;19937;-83
2022/12/27 10:00:19;;;;;;;;;;;;;;;6.51;100.00;100879.13;5015042;28;20526;-82
2022/12/27 10:02:46;;;;;;;;;;;;;;;6.51;100.00;100873.84;4991768;28;19922;-86
2022/12/27 10:05:21;;;;;;;;;;;;;;;6.50;100.00;100865.97;4994871;28;19925;-82
2022/12/27 10:08:11;;;;;;;;;;;;;;;6.49;100.00;100864.22;4977759;28;19923;-82
2022/12/27 10:10:48;;;;;;;;;;;;;;;6.49;100.00;100870.38;4976431;28;20327;-85
2022/12/27 10:13:22;;;;;;;;;;;;;;;6.95;100.00;100866.41;4976335;28;19922;-80
2022/12/27 10:15:50;;;;;;;;;;;;;;;7.61;100.00;100865.59;4976404;28;20285;-86
2022/12/27 10:18:16;;;;;;;;;;;;;;;8.05;100.00;100860.56;4989987;28;20305;-82
2022/12/27 10:20:41;;;;;;;;;;;;;;;8.36;100.00;100849.53;4983217;28;19933;-83
2022/12/27 10:23:10;;;;;;;;;;;;;;;7.68;100.00;100853.19;4992471;28;19929;-83
2022/12/27 10:25:36;;;;;;;;;;;;;;;7.49;100.00;100852.56;4996029;28;19925;-87
2022/12/27 10:28:09;;;;;;;;;;;;;;;7.27;100.00;100850.22;4994074;28;19936;-86
2022/12/27 10:30:34;;;;;;;;;;;;;;;7.21;100.00;100849.41;5006653;28;20456;-91
2022/12/27 10:32:59;;;;;;;;;;;;;;;7.17;100.00;100848.56;4987707;28;19929;-84
2022/12/27 10:35:25;;;;;;;;;;;;;;;7.07;100.00;100839.91;4994605;28;19925;-82
2022/12/27 10:37:52;;;;;;;;;;;;;;;6.99;100.00;100839.13;4993784;28;20332;-86
2022/12/27 10:40:18;;;;;;;;;;;;;;;6.95;100.00;100834.78;4995279;28;19918;-89
2022/12/27 10:42:46;;;;;;;;;;;;;;;6.97;100.00;100834.75;4993433;28;19922;-85
2022/12/27 10:45:25;;;;;;;;;;;;;;;6.96;100.00;100831.25;4989757;28;19965;-85
2022/12/27 10:47:51;;;;;;;;;;;;;;;6.92;100.00;100842.72;4992710;28;19957;-84
2022/12/27 10:50:16;;;;;;;;;;;;;;;6.87;100.00;100840.13;4996384;28;19925;-85
2022/12/27 10:52:42;;;;;;;;;;;;;;;6.87;100.00;100847.16;4994112;28;20332;-84
2022/12/27 10:55:27;;;;;;;;;;;;;;;6.86;100.00;100845.41;4995195;28;19933;-84
2022/12/27 10:57:53;;;;;;;;;;;;;;;6.77;100.00;100858.69;4994272;28;19922;-82
2022/12/27 11:00:19;;;;;;;;;;;;;;;6.77;100.00;100850.81;4993460;28;19939;-85
2022/12/27 11:02:51;;;;;;;;;;;;;;;6.79;100.00;100854.28;5015196;28;20007;-83
2022/12/27 11:05:24;;;;;;;;;;;;;;;6.87;100.00;100847.16;4982784;28;19921;-84
2022/12/27 11:07:50;;;;;;;;;;;;;;;6.77;100.00;100837.63;4995975;28;20275;-90
2022/12/27 11:10:17;;;;;;;;;;;;;;;6.90;100.00;100841.88;5015831;28;19928;-84
2022/12/27 11:12:56;;;;;;;;;;;;;;;6.87;100.00;100845.38;5015370;28;19924;-85
2022/12/27 11:15:22;;;;;;;;;;;;;;;6.78;100.00;100844.63;4996539;28;20014;-85
2022/12/27 11:17:58;;;;;;;;;;;;;;;6.79;100.00;100838.47;5015304;28;20346;-83
2022/12/27 11:20:28;;;;;;;;;;;;;;;6.73;100.00;100835.03;5015351;28;19917;-82
2022/12/27 11:22:53;;;;;;;;;;;;;;;6.76;100.00;100841.13;5015344;28;20284;-85
2022/12/27 11:25:19;;;;;;;;;;;;;;;6.80;100.00;100833.19;5015065;28;19920;-85
2022/12/27 11:27:46;;;;;;;;;;;;;;;6.77;100.00;100829.72;5015338;28;19918;-85
2022/12/27 11:30:22;;;;;;;;;;;;;;;6.77;100.00;100838.50;5013803;28;19968;-85
2022/12/27 11:32:47;;;;;;;;;;;;;;;6.80;100.00;100822.66;4997611;28;19917;-85
2022/12/27 11:35:17;;;;;;;;;;;;;;;6.82;100.00;100822.63;5015080;28;20328;-85
2022/12/27 11:37:42;;;;;;;;;;;;;;;6.76;100.00;100827.97;5014964;28;19917;-85
2022/12/27 11:40:13;;;;;;;;;;;;;;;6.76;100.00;100827.97;5014862;28;19940;-84
2022/12/27 11:42:44;;;;;;;;;;;;;;;6.77;100.00;100827.09;4997450;28;19964;-82
2022/12/27 11:45:28;;;;;;;;;;;;;;;6.74;100.00;100822.72;5013672;28;19918;-90
2022/12/27 11:48:03;;;;;;;;;;;;;;;7.05;100.00;100817.97;5014865;28;20381;-83
2022/12/27 11:50:47;;;;;;;;;;;;;;;6.84;100.00;100823.47;5012953;28;19918;-83
2022/12/27 11:53:18;;;;;;;;;;;;;;;7.84;100.00;100808.13;5000322;28;19918;-83
2022/12/27 11:55:50;;;;;;;;;;;;;;;7.38;100.00;100820.19;5014309;28;20021;-84
2022/12/27 11:58:33;;;;;;;;;;;;;;;7.05;100.00;100812.72;5014569;28;19921;-82
2022/12/27 12:01:16;;;;;;;;;;;;;;;7.05;100.00;100803.91;5013022;28;20384;-83
2022/12/27 12:04:00;;;;;;;;;;;;;;;7.01;100.00;100805.72;5011933;28;19928;-82
2022/12/27 12:06:34;;;;;;;;;;;;;;;6.87;100.00;100805.88;5013580;28;19924;-85
2022/12/27 12:09:18;;;;;;;;;;;;;;;6.83;100.00;100811.19;5014354;28;19917;-82
2022/12/27 12:11:43;;;;;;;;;;;;;;;6.79;100.00;100812.13;5014552;28;19920;-83
2022/12/27 12:14:18;;;;;;;;;;;;;;;6.78;100.00;100807.75;5011160;28;19925;-86
2022/12/27 12:16:46;;;;;;;;;;;;;;;6.76;100.00;100807.75;5012577;28;19918;-86
2022/12/27 12:19:27;;;;;;;;;;;;;;;6.67;100.00;100803.47;4996690;28;19965;-85
2022/12/27 12:22:19;;;;;;;;;;;;;;;6.73;100.00;100806.03;5013492;28;20008;-90
2022/12/27 12:24:47;;;;;;;;;;;;;;;6.83;100.00;100805.91;5011410;28;20318;-88
2022/12/27 12:27:21;;;;;;;;;;;;;;;6.70;100.00;100803.44;5011877;28;19961;-81
2022/12/27 12:29:46;;;;;;;;;;;;;;;6.62;100.00;100796.50;5007659;28;19968;-81
2022/12/27 12:32:20;;;;;;;;;;;;;;;6.68;100.00;100794.66;5011703;28;19926;-85
2022/12/27 12:34:51;;;;;;;;;;;;;;;6.65;100.00;100801.72;5014106;28;19988;-85
2022/12/27 12:37:24;;;;;;;;;;;;;;;6.67;100.00;100798.22;4996421;28;19917;-83
2022/12/27 12:39:55;;;;;;;;;;;;;;;6.64;100.00;100806.13;4996241;28;20361;-82
2022/12/27 12:42:41;;;;;;;;;;;;;;;6.64;100.00;100806.13;4994672;28;20210;-84
2022/12/27 12:45:24;;;;;;;;;;;;;;;6.66;100.00;100814.03;5002161;28;20014;-83
2022/12/27 12:48:08;;;;;;;;;;;;;;;6.61;100.00;100807.94;4990749;28;19918;-84
2022/12/27 12:50:52;;;;;;;;;;;;;;;6.61;100.00;100805.31;5011704;28;20388;-83
2022/12/27 12:53:36;;;;;;;;;;;;;;;6.64;100.00;100810.53;4995670;28;20407;-83
2022/12/27 12:56:01;;;;;;;;;;;;;;;6.61;100.00;100808.81;4994413;28;19921;-85
2022/12/27 12:58:37;;;;;;;;;;;;;;;6.64;100.00;100813.19;5011475;28;19917;-83
2022/12/27 13:01:06;;;;;;;;;;;;;;;6.58;100.00;100805.34;4998789;28;19922;-84
2022/12/27 13:03:50;;;;;;;;;;;;;;;6.53;100.00;100802.75;5003607;28;20312;-82
2022/12/27 13:06:42;;;;;;;;;;;;;;;6.57;100.00;100801.81;5013269;28;20296;-83
2022/12/27 13:09:14;;;;;;;;;;;;;;;6.57;100.00;100800.94;4999601;28;19956;-84
2022/12/27 13:11:42;;;;;;;;;;;;;;;6.55;100.00;100791.28;4995818;28;19917;-82
2022/12/27 13:14:10;;;;;;;;;;;;;;;6.53;100.00;100789.59;4993738;28;19921;-82
2022/12/27 13:16:54;;;;;;;;;;;;;;;6.54;100.00;100788.66;5009657;28;19921;-82
2022/12/27 13:19:38;;;;;;;;;;;;;;;6.60;100.00;100779.84;4994999;28;19929;-81
2022/12/27 13:22:14;;;;;;;;;;;;;;;6.52;100.00;100766.75;5013396;28;19921;-82
2022/12/27 13:24:55;;;;;;;;;;;;;;;6.56;100.00;100763.22;4995045;28;19973;-82
2022/12/27 13:27:20;;;;;;;;;;;;;;;6.53;100.00;100765.88;5011385;28;19968;-85
2022/12/27 13:29:52;;;;;;;;;;;;;;;6.54;100.00;100757.06;5009947;28;20022;-84
2022/12/27 13:32:34;;;;;;;;;;;;;;;6.53;100.00;100750.09;5011315;28;19928;-83
2022/12/27 13:35:04;;;;;;;;;;;;;;;6.52;100.00;100741.28;5012407;28;20020;-82
2022/12/27 13:37:44;;;;;;;;;;;;;;;6.50;100.00;100739.59;5010955;28;19932;-82
2022/12/27 13:40:29;;;;;;;;;;;;;;;6.50;100.00;100729.91;5012269;28;19922;-82
2022/12/27 13:43:18;;;;;;;;;;;;;;;6.47;100.00;100726.44;4994900;28;19967;-84
2022/12/27 13:45:46;;;;;;;;;;;;;;;6.53;100.00;100723.75;4985393;28;20015;-83
2022/12/27 13:48:39;;;;;;;;;;;;;;;6.46;100.00;100717.69;5011091;28;19921;-84
2022/12/27 13:51:09;;;;;;;;;;;;;;;6.47;100.00;100713.28;5010191;28;19965;-84
2022/12/27 13:53:50;;;;;;;;;;;;;;;6.45;100.00;100717.69;4993975;28;20016;-83
2022/12/27 13:56:18;;;;;;;;;;;;;;;6.44;100.00;100715.94;4995524;28;19922;-84
2022/12/27 13:59:09;;;;;;;;;;;;;;;6.47;100.00;100719.41;5013201;28;19963;-83
2022/12/27 14:01:45;;;;;;;;;;;;;;;6.44;100.00;100723.84;5009569;28;19921;-82
2022/12/27 14:04:38;;;;;;;;;;;;;;;6.43;100.00;100717.72;4994635;28;19999;-81
2022/12/27 14:07:03;;;;;;;;;;;;;;;6.43;100.00;100712.44;5011046;28;19925;-82
2022/12/27 14:09:28;;;;;;;;;;;;;;;6.43;100.00;100719.47;5011955;28;19921;-81
2022/12/27 14:12:12;;;;;;;;;;;;;;;6.44;100.00;100713.31;5013000;28;19917;-82
2022/12/27 14:14:39;;;;;;;;;;;;;;;6.44;100.00;100713.31;4991757;28;20015;-82
2022/12/27 14:17:04;;;;;;;;;;;;;;;6.41;100.00;100705.44;4986612;28;20316;-83
2022/12/27 14:19:40;;;;;;;;;;;;;;;6.42;100.00;100707.19;5011698;28;19921;-82
2022/12/27 14:22:28;;;;;;;;;;;;;;;6.38;100.00;100703.72;5012820;28;19921;-85
2022/12/27 14:24:54;;;;;;;;;;;;;;;6.34;100.00;100700.25;4995051;28;19922;-84
2022/12/27 14:27:31;;;;;;;;;;;;;;;6.52;100.00;100703.56;4996642;28;20281;-82
2022/12/27 14:30:18;;;;;;;;;;;;;;;6.45;100.00;100694.00;5008681;28;19936;-86
2022/12/27 14:33:05;;;;;;;;;;;;;;;6.54;100.00;100699.13;5014789;28;20303;-83
2022/12/27 14:35:54;;;;;;;;;;;;;;;6.54;100.00;100704.41;5016186;28;20013;-83
2022/12/27 14:38:22;;;;;;;;;;;;;;;6.80;100.00;100705.88;4988133;28;19917;-81
2022/12/27 14:40:59;;;;;;;;;;;;;;;6.60;100.00;100706.13;5014447;28;19959;-82
2022/12/27 14:43:42;;;;;;;;;;;;;;;6.48;100.00;100710.63;5015903;28;19925;-84
2022/12/27 14:46:10;;;;;;;;;;;;;;;6.48;100.00;100704.50;5014486;28;19964;-82
2022/12/27 14:48:47;;;;;;;;;;;;;;;6.49;100.00;100712.38;5015716;28;20369;-79
2022/12/27 14:51:19;;;;;;;;;;;;;;;6.45;100.00;100705.41;5014737;28;19920;-86
2022/12/27 14:54:02;;;;;;;;;;;;;;;6.38;100.00;100701.06;4997994;28;20262;-83
2022/12/27 14:56:37;;;;;;;;;;;;;;;6.38;100.00;100698.44;4994046;28;19968;-81
2022/12/27 14:59:05;;;;;;;;;;;;;;;6.43;100.00;100701.03;5013801;28;19976;-84
2022/12/27 15:01:38;;;;;;;;;;;;;;;6.36;100.00;100694.97;5011935;28;19922;-82
2022/12/27 15:04:21;;;;;;;;;;;;;;;6.34;100.00;100700.25;5015682;28;19921;-81
2022/12/27 15:07:08;;;;;;;;;;;;;;;6.32;100.00;100698.53;5015481;28;19922;-83
2022/12/27 15:09:47;;;;;;;;;;;;;;;6.31;100.00;100702.91;4995087;28;19984;-83
2022/12/27 15:12:33;;;;;;;;;;;;;;;6.31;100.00;100702.03;4997191;28;19984;-81
2022/12/27 15:15:17;;;;;;;;;;;;;;;6.29;100.00;100704.69;4995855;28;19924;-84
2022/12/27 15:17:52;;;;;;;;;;;;;;;6.28;100.00;100702.94;4997016;28;19944;-84
2022/12/27 15:20:26;;;;;;;;;;;;;;;6.29;100.00;100702.06;4996854;28;20280;-82
2022/12/27 15:23:00;;;;;;;;;;;;;;;6.24;100.00;100701.25;5014193;28;19967;-86
2022/12/27 15:25:26;;;;;;;;;;;;;;;6.26;100.00;100699.47;5013991;28;19932;-82
2022/12/27 15:27:51;;;;;;;;;;;;;;;6.25;100.00;100702.09;4997574;28;19917;-84
2022/12/27 15:30:16;;;;;;;;;;;;;;;6.23;100.00;100699.50;4994726;28;19917;-84
2022/12/27 15:32:50;;;;;;;;;;;;;;;6.20;100.00;100696.88;5013020;28;19948;-81
2022/12/27 15:35:30;;;;;;;;;;;;;;;6.22;100.00;100692.47;5010854;28;19948;-81
2022/12/27 15:38:03;;;;;;;;;;;;;;;6.24;100.00;100685.44;5012260;28;19925;-81
2022/12/27 15:40:28;;;;;;;;;;;;;;;6.23;100.00;100688.97;4996050;28;19917;-81
2022/12/27 15:43:12;;;;;;;;;;;;;;;6.24;100.00;100684.56;4996572;28;20289;-82
2022/12/27 15:45:46;;;;;;;;;;;;;;;6.23;100.00;100701.25;4991033;28;19933;-80
2022/12/27 15:48:12;;;;;;;;;;;;;;;6.17;100.00;100705.72;4986268;28;19961;-80
2022/12/27 15:50:57;;;;;;;;;;;;;;;6.21;100.00;100706.53;4993507;28;20356;-82
2022/12/27 15:53:49;;;;;;;;;;;;;;;6.19;100.00;100703.06;5009435;28;19932;-83
2022/12/27 15:56:36;;;;;;;;;;;;;;;6.18;100.00;100703.94;4992581;28;19921;-81
2022/12/27 15:59:20;;;;;;;;;;;;;;;6.13;100.00;100696.09;4992220;28;19922;-79
2022/12/27 16:01:46;;;;;;;;;;;;;;;6.16;100.00;100701.31;5018855;28;19932;-81
2022/12/27 16:04:30;;;;;;;;;;;;;;;6.19;100.00;100697.81;4994211;28;20004;-80
2022/12/27 16:06:55;;;;;;;;;;;;;;;6.14;100.00;100695.22;5014411;28;20280;-85
2022/12/27 16:09:24;;;;;;;;;;;;;;;6.16;100.00;100692.56;4994610;28;19920;-82
2022/12/27 16:11:58;;;;;;;;;;;;;;;6.15;100.00;100701.34;5002788;28;19925;-85
2022/12/27 16:14:27;;;;;;;;;;;;;;;6.12;100.00;100696.09;4993942;28;20309;-83
2022/12/27 16:16:57;;;;;;;;;;;;;;;6.13;100.00;100701.34;4984921;28;19975;-82
2022/12/27 16:19:30;;;;;;;;;;;;;;;6.13;100.00;100701.34;4998203;28;19927;-83
2022/12/27 16:21:55;;;;;;;;;;;;;;;6.13;100.00;100703.97;5004196;28;19973;-84
2022/12/27 16:24:22;;;;;;;;;;;;;;;6.13;100.00;100695.22;4994062;28;19925;-81
2022/12/27 16:26:53;;;;;;;;;;;;;;;6.09;100.00;100690.88;4995358;28;20037;-83
2022/12/27 16:29:19;;;;;;;;;;;;;;;6.09;100.00;100681.19;4991163;28;19922;-83
2022/12/27 16:31:47;;;;;;;;;;;;;;;6.10;100.00;100687.34;5004982;28;20029;-83
2022/12/27 16:34:23;;;;;;;;;;;;;;;6.10;100.00;100687.34;4988537;28;20269;-81
2022/12/27 16:36:50;;;;;;;;;;;;;;;6.06;100.00;100683.88;4999606;28;19944;-85
2022/12/27 16:39:15;;;;;;;;;;;;;;;6.08;100.00;100678.59;4994993;28;19925;-84
2022/12/27 16:41:53;;;;;;;;;;;;;;;6.09;100.00;100680.34;4994517;28;19928;-87
2022/12/27 16:44:24;;;;;;;;;;;;;;;6.06;100.00;100675.09;5003946;28;20395;-84
2022/12/27 16:46:55;;;;;;;;;;;;;;;6.03;100.00;100669.88;5013360;28;19923;-86
2022/12/27 16:49:27;;;;;;;;;;;;;;;6.06;100.00;100667.22;5003855;28;19921;-86
2022/12/27 16:51:59;;;;;;;;;;;;;;;6.05;100.00;100675.97;4992624;28;19921;-88
2022/12/27 16:54:25;;;;;;;;;;;;;;;6.05;100.00;100668.97;4995001;28;20280;-86
2022/12/27 16:56:50;;;;;;;;;;;;;;;6.05;100.00;100662.81;4993813;28;20008;-86
2022/12/27 16:59:34;;;;;;;;;;;;;;;6.15;100.00;100670.63;4993219;28;19957;-88
2022/12/27 17:02:00;;;;;;;;;;;;;;;6.13;100.00;100674.19;5006283;28;19932;-84
2022/12/27 17:04:44;;;;;;;;;;;;;;;6.44;100.00;100666.78;5023659;28;20011;-84
2022/12/27 17:07:35;;;;;;;;;;;;;;;6.24;100.00;100674.03;4985545;28;19928;-90
2022/12/27 17:10:18;;;;;;;;;;;;;;;6.12;100.00;100669.78;5014273;28;19921;-84
2022/12/27 17:12:47;;;;;;;;;;;;;;;6.14;100.00;100670.63;4992167;28;20048;-83
2022/12/27 17:15:13;;;;;;;;;;;;;;;6.09;100.00;100664.56;4987519;28;19922;-87
2022/12/27 17:17:38;;;;;;;;;;;;;;;6.04;100.00;100661.97;4993674;28;20710;-83
2022/12/27 17:20:05;;;;;;;;;;;;;;;6.03;100.00;100662.88;5010014;28;19933;-86
2022/12/27 17:22:32;;;;;;;;;;;;;;;6.01;100.00;100664.63;4989080;28;19929;-84
2022/12/27 17:24:58;;;;;;;;;;;;;;;6.04;100.00;100661.09;4992754;28;19968;-85
2022/12/27 17:27:32;;;;;;;;;;;;;;;6.02;100.00;100665.53;4994112;28;20019;-80
2022/12/27 17:30:03;;;;;;;;;;;;;;;6.00;100.00;100657.66;5008464;28;19925;-84
2022/12/27 17:32:41;;;;;;;;;;;;;;;5.97;100.00;100661.16;4994628;28;19922;-88
2022/12/27 17:35:09;;;;;;;;;;;;;;;6.00;100.00;100653.25;4992596;28;19926;-82
2022/12/27 17:37:40;;;;;;;;;;;;;;;5.97;100.00;100650.63;5012013;28;19921;-82
2022/12/27 17:40:09;;;;;;;;;;;;;;;6.01;100.00;100651.47;5009371;28;20448;-85
2022/12/27 17:45:33;;;;;;;;;;;;;;;5.89;100.00;100644.56;5016596;28;19932;-85
2022/12/27 17:48:05;;;;;;;;;;;;;;;5.96;100.00;100640.09;5010268;28;20397;-84
2022/12/27 17:50:33;;;;;;;;;;;;;;;5.96;100.00;100633.09;5013526;28;19920;-91
2022/12/27 17:58:43;;;;;;;;;;;;;;;5.89;100.00;100636.66;5010974;28;19943;-88
2022/12/27 18:01:08;;;;;;;;;;;;;;;5.91;100.00;100634.88;4993763;28;20381;-87
2022/12/27 18:03:36;;;;;;;;;;;;;;;5.77;100.00;100639.41;4999054;28;19949;-88
2022/12/27 18:06:02;;;;;;;;;;;;;;;5.80;100.00;100642.00;4998075;28;19936;-82
2022/12/27 18:08:29;;;;;;;;;;;;;;;5.80;100.00;100639.38;4997968;28;19956;-82
2022/12/27 18:10:55;;;;;;;;;;;;;;;5.81;100.00;100634.09;5016508;28;19994;-83
2022/12/27 18:13:22;;;;;;;;;;;;;;;5.79;100.00;100619.22;4997125;28;19929;-84
2022/12/27 18:15:49;;;;;;;;;;;;;;;5.74;100.00;100621.88;5013298;28;20288;-83
2022/12/27 18:18:16;;;;;;;;;;;;;;;5.75;100.00;100613.13;5015522;28;19934;-82
2022/12/27 18:20:42;;;;;;;;;;;;;;;5.71;100.00;100616.69;5013664;28;19928;-83
2022/12/27 18:23:07;;;;;;;;;;;;;;;5.67;100.00;100614.09;4998694;28;20292;-87
2022/12/27 18:25:39;;;;;;;;;;;;;;;5.69;100.00;100613.19;4997207;28;19924;-82
2022/12/27 18:28:24;;;;;;;;;;;;;;;5.64;100.00;100602.69;5014425;28;19925;-85
2022/12/27 18:31:06;;;;;;;;;;;;;;;5.67;100.00;100603.59;4999657;28;20287;-84
2022/12/27 18:33:54;;;;;;;;;;;;;;;5.70;100.00;100611.44;5008254;28;19924;-86
2022/12/27 18:36:26;;;;;;;;;;;;;;;5.61;100.00;100605.34;4985042;28;19928;-82
2022/12/27 18:38:57;;;;;;;;;;;;;;;5.60;100.00;100598.38;4997588;28;19921;-85
2022/12/27 18:41:23;;;;;;;;;;;;;;;5.61;100.00;100591.34;4995917;28;19935;-83
2022/12/27 18:43:51;;;;;;;;;;;;;;;5.61;100.00;100589.59;5013626;28;20008;-84
2022/12/27 18:46:37;;;;;;;;;;;;;;;5.63;100.00;100587.84;5011287;28;19921;-83
2022/12/27 18:49:03;;;;;;;;;;;;;;;5.74;100.00;100582.44;5012500;28;20405;-83
2022/12/27 18:51:38;;;;;;;;;;;;;;;5.58;100.00;100581.72;5012779;28;19999;-84
2022/12/27 18:54:39;;;;;;;;;;;;;;;5.59;100.00;100574.72;4996651;28;19984;-82
2022/12/27 18:57:05;;;;;;;;;;;;;;;5.68;100.00;100579.91;4938422;29;19927;-83
2022/12/27 18:59:32;;;;;;;;;;;;;;;5.61;100.00;100573.81;5000446;28;19948;-87
2022/12/27 19:01:58;;;;;;;;;;;;;;;5.60;100.00;100577.34;4995676;28;19922;-83
2022/12/27 19:04:25;;;;;;;;;;;;;;;5.57;100.00;100572.13;4997835;28;20365;-86
2022/12/27 19:06:56;;;;;;;;;;;;;;;5.59;100.00;100570.31;4996327;28;19963;-82
2022/12/27 19:09:24;;;;;;;;;;;;;;;5.57;100.00;100551.06;4997978;28;19922;-83
2022/12/27 19:11:55;;;;;;;;;;;;;;;5.55;100.00;100542.34;4977539;28;20404;-82
2022/12/27 19:14:21;;;;;;;;;;;;;;;5.56;100.00;100541.44;4993843;28;19969;-87
2022/12/27 19:16:49;;;;;;;;;;;;;;;5.49;100.00;100542.41;4989391;28;20015;-82
2022/12/27 19:19:25;;;;;;;;;;;;;;;5.49;100.00;100531.88;5013716;28;19929;-82
2022/12/27 19:21:52;;;;;;;;;;;;;;;5.49;100.00;100545.03;4994684;28;19996;-82
2022/12/27 19:24:27;;;;;;;;;;;;;;;5.53;100.00;100541.47;5010104;28;19929;-83
2022/12/27 19:26:54;;;;;;;;;;;;;;;5.51;100.00;100530.09;5014720;28;20008;-82
2022/12/27 19:29:28;;;;;;;;;;;;;;;5.45;100.00;100531.03;5012524;28;19921;-81
2022/12/27 19:31:55;;;;;;;;;;;;;;;5.50;100.00;100532.75;5005564;28;19921;-88
2022/12/27 19:34:22;;;;;;;;;;;;;;;5.44;100.00;100538.94;4995854;28;19921;-83
2022/12/27 19:36:48;;;;;;;;;;;;;;;5.46;100.00;100526.66;5014036;28;19928;-82
2022/12/27 19:39:16;;;;;;;;;;;;;;;5.45;100.00;100525.75;4996205;28;19922;-88
2022/12/27 19:41:41;;;;;;;;;;;;;;;5.53;100.00;100523.06;4996600;28;20007;-88
2022/12/27 19:44:08;;;;;;;;;;;;;;;5.49;100.00;100515.22;5014118;28;19929;-82
2022/12/27 19:46:33;;;;;;;;;;;;;;;5.47;100.00;100509.97;5012816;28;19922;-84
2022/12/27 19:48:59;;;;;;;;;;;;;;;5.41;100.00;100507.44;4996152;28;20323;-83
2022/12/27 19:51:24;;;;;;;;;;;;;;;5.49;100.00;100517.84;4997171;28;20284;-81
2022/12/27 19:53:51;;;;;;;;;;;;;;;5.44;100.00;100507.38;4993389;28;20349;-80
2022/12/27 19:56:16;;;;;;;;;;;;;;;5.43;100.00;100505.66;4996853;28;20381;-82
2022/12/27 19:58:42;;;;;;;;;;;;;;;5.43;100.00;100495.16;5014436;28;19929;-81
2022/12/27 20:01:07;;;;;;;;;;;;;;;5.42;100.00;100494.25;5010413;28;19926;-81
2022/12/27 20:03:32;;;;;;;;;;;;;;;5.52;100.00;100500.31;5003538;28;20336;-80
2022/12/27 20:05:58;;;;;;;;;;;;;;;5.46;100.00;100487.22;4993036;28;19925;-82